createdAt,value
2022-07-29T00:01:44.233Z,5.80
2022-07-29T00:04:14.128Z,5.20
2022-07-29T00:06:42.829Z,5.50
2022-07-29T00:09:11.311Z,4.80
2022-07-29T00:11:39.446Z,5.10
2022-07-29T00:14:08.193Z,5.30
2022-07-29T00:16:36.787Z,5.40
2022-07-29T00:19:05.236Z,5.30
2022-07-29T00:21:36.090Z,5.50
2022-07-29T00:24:04.655Z,5.60
2022-07-29T00:26:33.790Z,5.30
2022-07-29T00:29:32.642Z,5.50
2022-07-29T00:31:52.887Z,5.60
2022-07-29T00:34:39.975Z,5.30
2022-07-29T00:37:08.543Z,5.60
2022-07-29T00:39:36.636Z,5.80
2022-07-29T00:42:06.150Z,5.40
2022-07-29T00:44:42.501Z,5.40
2022-07-29T00:47:12.626Z,6.10
2022-07-29T00:49:42.320Z,5.40
2022-07-29T00:52:12.213Z,5.50
2022-07-29T00:54:44.595Z,5.40
2022-07-29T00:57:13.642Z,5.90
2022-07-29T00:59:42.087Z,5.80
2022-07-29T01:02:10.447Z,5.30
2022-07-29T01:04:38.957Z,5.70
2022-07-29T01:07:08.355Z,5.80
2022-07-29T01:09:45.981Z,5.60
2022-07-29T01:12:23.592Z,5.80
2022-07-29T01:14:53.385Z,5.70
2022-07-29T01:17:29.937Z,6.20
2022-07-29T01:20:07.629Z,5.80
2022-07-29T01:22:35.698Z,5.70
2022-07-29T01:25:19.865Z,5.90
2022-07-29T01:28:13.136Z,5.40
2022-07-29T01:30:46.017Z,5.40
2022-07-29T01:33:37.384Z,5.40
2022-07-29T01:36:13.165Z,5.00
2022-07-29T01:38:44.157Z,4.50
2022-07-29T01:41:18.695Z,4.90
2022-07-29T01:44:02.630Z,5.30
2022-07-29T01:49:16.285Z,5.10
2022-07-29T01:52:01.199Z,5.50
2022-07-29T01:54:32.545Z,5.20
2022-07-29T01:57:02.925Z,4.50
2022-07-29T01:59:32.925Z,4.60
2022-07-29T02:02:03.057Z,4.90
2022-07-29T02:04:34.985Z,5.20
2022-07-29T02:07:07.110Z,5.30
2022-07-29T02:09:38.019Z,5.30
2022-07-29T02:12:08.643Z,5.10
2022-07-29T02:14:43.997Z,4.90
2022-07-29T02:17:14.624Z,4.70
2022-07-29T02:19:46.078Z,5.10
2022-07-29T02:22:15.930Z,4.90
2022-07-29T02:24:45.548Z,5.40
2022-07-29T02:27:15.551Z,5.40
2022-07-29T02:29:46.492Z,5.50
2022-07-29T02:32:17.424Z,5.70
2022-07-29T02:34:47.791Z,6.30
2022-07-29T02:37:18.582Z,5.50
2022-07-29T02:39:50.119Z,5.70
2022-07-29T02:42:19.946Z,5.60
2022-07-29T02:44:48.662Z,6.00
2022-07-29T02:47:41.797Z,5.40
2022-07-29T02:50:18.922Z,5.90
2022-07-29T02:53:10.290Z,6.50
2022-07-29T02:55:43.516Z,5.30
2022-07-29T02:58:29.717Z,5.60
2022-07-29T03:01:04.426Z,5.90
2022-07-29T03:03:38.493Z,6.00
2022-07-29T03:06:08.736Z,5.90
2022-07-29T03:08:59.070Z,5.60
2022-07-29T03:11:42.302Z,5.50
2022-07-29T03:14:19.516Z,6.10
2022-07-29T03:16:49.008Z,5.80
2022-07-29T03:19:18.584Z,5.50
2022-07-29T03:21:47.599Z,6.40
2022-07-29T03:24:30.432Z,6.10
2022-07-29T03:26:59.130Z,6.90
2022-07-29T03:29:33.576Z,6.10
2022-07-29T03:32:07.900Z,6.10
2022-07-29T03:34:38.856Z,6.00
2022-07-29T03:37:08.002Z,5.50
2022-07-29T03:39:42.622Z,6.20
2022-07-29T03:42:15.273Z,6.00
2022-07-29T03:44:47.033Z,6.00
2022-07-29T03:47:18.792Z,6.40
2022-07-29T03:49:53.317Z,6.80
2022-07-29T03:52:22.939Z,6.60
2022-07-29T03:54:51.734Z,6.30
2022-07-29T03:57:25.035Z,5.70
2022-07-29T03:59:54.749Z,6.10
2022-07-29T04:02:28.705Z,6.00
2022-07-29T04:04:59.095Z,6.60
2022-07-29T04:07:27.655Z,6.70
2022-07-29T04:09:55.941Z,6.70
2022-07-29T04:12:24.261Z,6.10
2022-07-29T04:14:52.490Z,6.10
2022-07-29T04:17:20.679Z,6.50
2022-07-29T04:19:48.950Z,7.80
2022-07-29T04:22:17.217Z,6.50
2022-07-29T04:24:45.508Z,6.20
2022-07-29T04:27:13.881Z,5.60
2022-07-29T04:29:57.032Z,5.80
2022-07-29T04:32:27.348Z,6.40
2022-07-29T04:34:55.510Z,7.30
2022-07-29T04:37:23.788Z,6.30
2022-07-29T04:39:52.102Z,6.30
2022-07-29T04:42:27.419Z,6.00
2022-07-29T04:44:55.932Z,5.90
2022-07-29T04:47:24.763Z,6.10
2022-07-29T04:49:52.963Z,6.00
2022-07-29T04:52:21.239Z,6.30
2022-07-29T04:54:50.227Z,6.20
2022-07-29T04:57:18.544Z,6.50
2022-07-29T04:59:46.887Z,5.50
2022-07-29T05:02:15.406Z,6.20
2022-07-29T05:04:44.166Z,5.80
2022-07-29T05:07:12.338Z,5.80
2022-07-29T05:09:40.621Z,5.80
2022-07-29T05:16:41.495Z,5.70
2022-07-29T05:19:13.805Z,6.00
2022-07-29T05:21:42.652Z,5.60
2022-07-29T05:24:11.465Z,6.40
2022-07-29T05:35:39.004Z,6.00
2022-07-29T05:38:07.255Z,5.80
2022-07-29T05:40:35.851Z,5.80
2022-07-29T05:43:04.274Z,5.40
2022-07-29T05:45:32.708Z,6.00
2022-07-29T05:48:01.134Z,6.00
2022-07-29T05:50:29.600Z,5.70
2022-07-29T05:52:58.056Z,6.40
2022-07-29T05:55:26.635Z,6.20
2022-07-29T05:57:55.119Z,6.50
2022-07-29T06:00:23.742Z,6.50
2022-07-29T06:02:52.598Z,7.00
2022-07-29T06:05:21.183Z,7.10
2022-07-29T06:07:50.661Z,6.20
2022-07-29T06:10:20.301Z,6.70
2022-07-29T06:12:52.304Z,6.60
2022-07-29T06:15:20.676Z,6.60
2022-07-29T06:17:59.685Z,5.80
2022-07-29T06:20:31.536Z,6.60
2022-07-29T06:23:00.976Z,6.80
2022-07-29T06:25:33.440Z,6.20
2022-07-29T06:28:02.527Z,6.40
2022-07-29T06:30:30.955Z,6.60
2022-07-29T06:32:59.519Z,6.80
2022-07-29T06:35:41.053Z,8.00
2022-07-29T06:38:30.950Z,7.20
2022-07-29T06:41:18.486Z,7.10
2022-07-29T06:43:51.854Z,6.70
2022-07-29T06:46:23.663Z,7.00
2022-07-29T06:48:53.345Z,5.90
2022-07-29T06:51:23.836Z,7.40
2022-07-29T06:53:59.500Z,7.40
2022-07-29T06:56:39.151Z,6.70
2022-07-29T06:59:13.709Z,6.60
2022-07-29T07:04:13.014Z,6.40
2022-07-29T07:06:41.954Z,6.40
2022-07-29T07:09:10.213Z,6.60
2022-07-29T07:11:38.488Z,6.30
2022-07-29T07:14:06.861Z,6.20
2022-07-29T07:16:35.095Z,6.10
2022-07-29T07:19:03.554Z,6.30
2022-07-29T07:21:31.792Z,6.50
2022-07-29T07:24:01.756Z,6.50
2022-07-29T07:26:30.096Z,5.90
2022-07-29T07:28:58.525Z,5.80
2022-07-29T07:31:26.940Z,6.10
2022-07-29T07:33:55.345Z,6.50
2022-07-29T07:36:24.548Z,6.40
2022-07-29T07:38:52.810Z,7.70
2022-07-29T07:41:22.823Z,7.30
2022-07-29T07:43:50.970Z,6.30
2022-07-29T07:46:19.206Z,6.30
2022-07-29T07:48:47.370Z,6.50
2022-07-29T07:51:15.518Z,6.10
2022-07-29T07:53:43.681Z,5.90
2022-07-29T07:56:12.828Z,6.50
2022-07-29T07:58:41.336Z,6.20
2022-07-29T08:01:10.756Z,6.60
2022-07-29T08:03:40.029Z,6.80
2022-07-29T08:06:08.900Z,6.80
2022-07-29T08:08:37.027Z,6.90
2022-07-29T08:11:09.542Z,5.90
2022-07-29T08:13:39.631Z,6.50
2022-07-29T08:16:16.718Z,6.20
2022-07-29T08:18:46.578Z,6.30
2022-07-29T08:21:16.455Z,6.90
2022-07-29T08:23:59.703Z,6.50
2022-07-29T08:26:28.998Z,7.50
2022-07-29T08:28:57.228Z,8.50
2022-07-29T08:31:25.626Z,6.90
2022-07-29T08:33:53.982Z,7.20
2022-07-29T08:40:55.394Z,7.20
2022-07-29T08:43:24.225Z,7.10
2022-07-29T08:45:53.182Z,6.50
2022-07-29T08:48:23.848Z,7.00
2022-07-29T08:50:57.094Z,6.30
2022-07-29T08:53:28.454Z,6.40
2022-07-29T08:55:57.231Z,6.30
2022-07-29T08:58:26.875Z,6.30
2022-07-29T09:00:57.987Z,7.30
2022-07-29T09:03:31.758Z,6.10
2022-07-29T09:08:29.312Z,6.20
2022-07-29T09:10:57.471Z,6.10
2022-07-29T09:13:26.010Z,5.80
2022-07-29T09:15:55.060Z,5.90
2022-07-29T09:18:43.431Z,5.80
2022-07-29T09:21:34.258Z,5.90
2022-07-29T09:24:11.568Z,6.20
2022-07-29T09:26:47.258Z,5.70
2022-07-29T09:29:17.811Z,5.40
2022-07-29T09:31:48.187Z,6.30
2022-07-29T09:34:29.578Z,6.10
2022-07-29T09:36:58.426Z,5.30
2022-07-29T09:39:47.363Z,5.50
2022-07-29T09:42:29.349Z,5.20
2022-07-29T09:44:57.607Z,5.70
2022-07-29T09:47:42.275Z,6.10
2022-07-29T09:54:29.218Z,6.10
2022-07-29T09:56:57.481Z,6.10
2022-07-29T09:59:27.588Z,6.90
2022-07-29T10:01:56.644Z,6.60
2022-07-29T10:04:25.157Z,6.40
2022-07-29T10:07:04.740Z,6.00
2022-07-29T10:09:35.216Z,5.80
2022-07-29T10:12:14.776Z,6.10
2022-07-29T10:14:43.966Z,5.80
2022-07-29T10:17:12.355Z,5.80
2022-07-29T10:19:40.988Z,6.40
2022-07-29T10:22:11.414Z,5.60
2022-07-29T10:24:40.286Z,6.50
2022-07-29T10:27:10.308Z,6.00
2022-07-29T10:29:38.570Z,5.60
2022-07-29T10:32:09.563Z,6.10
2022-07-29T10:35:15.485Z,6.00
2022-07-29T10:37:56.966Z,6.10
2022-07-29T10:41:32.232Z,6.30
2022-07-29T10:44:23.253Z,6.20
2022-07-29T10:46:53.420Z,6.50
2022-07-29T10:49:30.305Z,6.40
2022-07-29T10:52:06.568Z,6.90
2022-07-29T10:54:37.802Z,6.80
2022-07-29T10:57:53.227Z,7.10
2022-07-29T11:00:16.904Z,6.50
2022-07-29T11:02:50.186Z,6.50
2022-07-29T11:05:20.812Z,6.80
2022-07-29T11:08:12.489Z,6.70
2022-07-29T11:10:50.556Z,7.10
2022-07-29T11:13:49.360Z,6.90
2022-07-29T11:16:20.117Z,6.50
2022-07-29T11:19:11.412Z,7.30
2022-07-29T11:21:54.145Z,6.50
2022-07-29T11:24:35.936Z,7.10
2022-07-29T11:27:19.925Z,6.80
2022-07-29T11:29:55.542Z,7.80
2022-07-29T11:32:29.199Z,6.80
2022-07-29T11:35:17.208Z,6.90
2022-07-29T11:37:52.735Z,6.80
2022-07-29T11:40:26.224Z,6.70
2022-07-29T11:42:55.062Z,5.20
2022-07-29T11:45:42.534Z,5.70
2022-07-29T11:51:13.322Z,5.50
2022-07-29T11:53:48.010Z,6.00
2022-07-29T11:56:25.742Z,6.70
2022-07-29T11:59:08.597Z,6.40
2022-07-29T12:01:37.329Z,6.70
2022-07-29T12:04:07.805Z,6.60
2022-07-29T12:06:36.435Z,5.80
2022-07-29T12:09:11.245Z,5.90
2022-07-29T12:11:47.332Z,7.90
2022-07-29T12:14:30.289Z,8.20
2022-07-29T12:16:59.741Z,7.20
2022-07-29T12:19:28.603Z,5.40
2022-07-29T12:22:02.241Z,5.30
2022-07-29T12:24:44.887Z,4.80
2022-07-29T12:27:13.239Z,5.10
2022-07-29T12:29:46.298Z,4.50
2022-07-29T12:32:19.483Z,5.80
2022-07-29T12:34:48.751Z,4.80
2022-07-29T12:37:17.658Z,4.40
2022-07-29T12:39:46.611Z,4.60
2022-07-29T12:42:18.461Z,4.20
2022-07-29T12:44:49.110Z,3.70
2022-07-29T12:47:19.320Z,4.00
2022-07-29T12:49:49.050Z,3.30
2022-07-29T12:52:27.560Z,3.60
2022-07-29T12:54:56.043Z,4.50
2022-07-29T12:57:25.243Z,3.70
2022-07-29T13:00:04.897Z,4.20
2022-07-29T13:02:33.331Z,4.80
2022-07-29T13:05:03.407Z,4.50
2022-07-29T13:08:29.574Z,4.10
2022-07-29T13:10:24.073Z,4.40
2022-07-29T13:13:16.573Z,4.40
2022-07-29T13:15:48.626Z,4.20
2022-07-29T13:18:34.949Z,4.00
2022-07-29T13:21:18.841Z,4.30
2022-07-29T13:23:47.397Z,3.80
2022-07-29T13:26:19.532Z,3.70
2022-07-29T13:28:47.835Z,3.50
2022-07-29T13:31:16.362Z,4.10
2022-07-29T13:33:44.694Z,3.80
2022-07-29T13:36:13.057Z,4.00
2022-07-29T13:38:41.225Z,3.90
2022-07-29T13:41:09.612Z,4.10
2022-07-29T13:43:38.921Z,3.40
2022-07-29T13:46:07.058Z,4.20
2022-07-29T13:48:35.607Z,3.30
2022-07-29T13:51:04.061Z,3.90
2022-07-29T13:53:32.437Z,5.00
2022-07-29T13:56:01.124Z,3.80
2022-07-29T13:58:29.499Z,4.40
2022-07-29T14:00:58.364Z,4.00
2022-07-29T14:03:26.984Z,4.50
2022-07-29T14:05:55.912Z,4.00
2022-07-29T14:08:24.211Z,3.80
2022-07-29T14:10:52.425Z,3.70
2022-07-29T14:13:25.245Z,4.20
2022-07-29T14:15:54.214Z,3.90
2022-07-29T14:18:22.585Z,4.20
2022-07-29T14:20:52.219Z,3.90
2022-07-29T14:23:20.515Z,4.00
2022-07-29T14:25:49.453Z,4.40
2022-07-29T14:28:18.080Z,4.20
2022-07-29T14:30:46.450Z,4.00
2022-07-29T14:33:15.448Z,4.20
2022-07-29T14:35:43.944Z,4.50
2022-07-29T14:38:12.504Z,3.90
2022-07-29T14:40:40.776Z,3.90
2022-07-29T14:43:10.210Z,3.40
2022-07-29T14:45:38.693Z,4.20
2022-07-29T14:48:07.501Z,4.20
2022-07-29T14:50:36.163Z,3.90
2022-07-29T14:53:04.844Z,4.20
2022-07-29T14:55:33.130Z,4.50
2022-07-29T14:58:08.945Z,3.70
2022-07-29T15:00:40.644Z,4.30
2022-07-29T15:03:11.647Z,3.50
2022-07-29T15:05:40.356Z,3.50
2022-07-29T15:08:09.304Z,3.80
2022-07-29T15:10:39.300Z,3.60
2022-07-29T15:13:07.543Z,3.70
2022-07-29T15:15:35.647Z,3.80
2022-07-29T15:18:04.181Z,3.70
2022-07-29T15:20:32.350Z,4.40
2022-07-29T15:23:00.481Z,3.70
2022-07-29T15:25:28.730Z,4.20
2022-07-29T15:28:01.354Z,3.80
2022-07-29T15:30:34.407Z,4.10
2022-07-29T15:33:04.595Z,6.60
2022-07-29T15:35:33.650Z,4.60
2022-07-29T15:38:09.688Z,4.10
2022-07-29T15:40:42.338Z,4.10
2022-07-29T15:43:10.788Z,4.00
2022-07-29T15:46:06.768Z,4.00
2022-07-29T15:48:39.496Z,4.10
2022-07-29T15:51:07.936Z,4.10
2022-07-29T15:53:36.055Z,4.50
2022-07-29T15:56:04.703Z,4.60
2022-07-29T15:58:32.982Z,4.50
2022-07-29T16:01:01.311Z,5.00
2022-07-29T16:03:29.804Z,4.90
2022-07-29T16:05:58.123Z,4.80
2022-07-29T16:08:26.503Z,4.50
2022-07-29T16:10:54.878Z,5.20
2022-07-29T16:13:24.084Z,5.10
2022-07-29T16:16:02.289Z,5.40
2022-07-29T16:18:31.083Z,5.50
2022-07-29T16:20:59.258Z,5.60
2022-07-29T16:23:27.547Z,5.20
2022-07-29T16:26:00.848Z,5.80
2022-07-29T16:28:31.075Z,4.80
2022-07-29T16:30:59.875Z,4.70
2022-07-29T16:33:28.946Z,4.50
2022-07-29T16:36:18.527Z,4.00
2022-07-29T16:38:47.637Z,4.00
2022-07-29T16:41:16.105Z,4.10
2022-07-29T16:43:44.573Z,4.10
2022-07-29T16:46:18.496Z,4.00
2022-07-29T16:48:48.691Z,4.80
2022-07-29T16:51:17.205Z,4.60
2022-07-29T16:53:45.809Z,8.30
2022-07-29T16:56:18.280Z,4.60
2022-07-29T16:58:46.541Z,3.90
2022-07-29T17:01:15.036Z,4.90
2022-07-29T17:04:02.224Z,4.40
2022-07-29T17:06:30.646Z,4.60
2022-07-29T17:08:59.013Z,4.00
2022-07-29T17:11:52.498Z,4.10
2022-07-29T17:14:15.942Z,3.90
2022-07-29T17:17:00.340Z,4.20
2022-07-29T17:19:31.145Z,4.60
2022-07-29T17:22:07.030Z,4.40
2022-07-29T17:24:38.953Z,5.10
2022-07-29T17:27:09.898Z,4.90
2022-07-29T17:29:39.300Z,4.90
2022-07-29T17:32:09.317Z,5.10
2022-07-29T17:34:39.342Z,5.30
2022-07-29T17:37:10.801Z,5.10
2022-07-29T17:39:41.395Z,5.30
2022-07-29T17:42:13.391Z,5.30
2022-07-29T17:44:42.802Z,5.00
2022-07-29T17:47:15.951Z,4.80
2022-07-29T17:49:46.125Z,4.90
2022-07-29T17:52:14.389Z,5.60
2022-07-29T17:54:42.585Z,5.50
2022-07-29T17:57:10.690Z,5.30
2022-07-29T17:59:38.924Z,5.00
2022-07-29T18:02:07.552Z,4.80
2022-07-29T18:04:35.779Z,5.00
2022-07-29T18:07:04.199Z,5.50
2022-07-29T18:09:32.550Z,5.00
2022-07-29T18:12:00.830Z,5.10
2022-07-29T18:14:29.023Z,4.90
2022-07-29T18:16:57.535Z,5.30
2022-07-29T18:19:25.950Z,5.40
2022-07-29T18:21:56.572Z,6.00
2022-07-29T18:24:27.956Z,5.40
2022-07-29T18:26:56.921Z,5.30
2022-07-29T18:29:25.646Z,4.90
2022-07-29T18:31:53.827Z,5.70
2022-07-29T18:34:22.319Z,5.00
2022-07-29T18:36:50.460Z,5.30
2022-07-29T18:39:21.186Z,6.00
2022-07-29T18:41:52.795Z,7.20
2022-07-29T18:44:22.732Z,6.30
2022-07-29T18:46:52.675Z,5.90
2022-07-29T18:49:21.756Z,6.20
2022-07-29T18:51:50.685Z,5.80
2022-07-29T18:54:19.878Z,5.90
2022-07-29T18:56:48.700Z,5.70
2022-07-29T18:59:22.656Z,5.20
2022-07-29T19:01:51.697Z,4.90
2022-07-29T19:04:20.088Z,4.90
2022-07-29T19:06:48.534Z,4.80
2022-07-29T19:09:17.747Z,4.50
2022-07-29T19:11:46.246Z,5.50
2022-07-29T19:14:14.509Z,7.40
2022-07-29T19:16:42.778Z,9.40
2022-07-29T19:19:11.061Z,6.20
2022-07-29T19:21:39.343Z,5.40
2022-07-29T19:24:12.310Z,10.20
2022-07-29T19:26:46.985Z,6.50
2022-07-29T19:29:16.155Z,4.50
2022-07-29T19:31:44.453Z,9.90
2022-07-29T19:34:13.042Z,10.70
2022-07-29T19:36:42.119Z,13.30
2022-07-29T19:39:10.618Z,9.90
2022-07-29T19:41:39.021Z,8.50
2022-07-29T19:44:07.088Z,7.20
2022-07-29T19:46:35.698Z,10.40
2022-07-29T19:49:06.836Z,7.20
2022-07-29T19:51:35.273Z,5.70
2022-07-29T19:54:03.774Z,6.20
2022-07-29T19:56:32.231Z,6.20
2022-07-29T19:59:01.802Z,6.60
2022-07-29T20:01:32.387Z,7.40
2022-07-29T20:04:00.958Z,7.10
2022-07-29T20:06:29.295Z,6.20
2022-07-29T20:08:58.990Z,5.40
2022-07-29T20:11:29.849Z,6.50
2022-07-29T20:13:58.267Z,10.40
2022-07-29T20:16:26.706Z,5.90
2022-07-29T20:18:55.140Z,5.40
2022-07-29T20:21:23.281Z,5.00
2022-07-29T20:23:51.510Z,5.00
2022-07-29T20:26:20.076Z,4.90
2022-07-29T20:28:49.593Z,5.60
2022-07-29T20:31:19.256Z,5.30
2022-07-29T20:33:48.692Z,5.00
2022-07-29T20:36:17.291Z,5.00
2022-07-29T20:38:45.557Z,6.30
2022-07-29T20:41:14.481Z,6.40
2022-07-29T20:43:43.546Z,6.60
2022-07-29T20:46:11.883Z,6.30
2022-07-29T20:48:41.113Z,6.50
2022-07-29T20:51:09.411Z,6.20
2022-07-29T20:53:40.043Z,6.00
2022-07-29T20:56:08.746Z,6.60
2022-07-29T20:58:37.011Z,6.40
2022-07-29T21:01:06.366Z,6.90
2022-07-29T21:03:34.717Z,6.10
2022-07-29T21:06:03.793Z,6.40
2022-07-29T21:08:32.404Z,5.80
2022-07-29T21:11:00.760Z,5.70
2022-07-29T21:13:28.808Z,5.30
2022-07-29T21:16:04.265Z,6.50
2022-07-29T21:18:37.586Z,6.80
2022-07-29T21:21:06.051Z,6.80
2022-07-29T21:23:34.681Z,5.90
2022-07-29T21:26:04.272Z,7.10
2022-07-29T21:28:40.932Z,8.20
2022-07-29T21:31:16.304Z,7.50
2022-07-29T21:33:46.780Z,8.00
2022-07-29T21:36:46.847Z,7.60
2022-07-29T21:39:07.291Z,7.20
2022-07-29T21:41:36.011Z,7.10
2022-07-29T21:44:04.180Z,7.60
2022-07-29T21:46:32.619Z,7.70
2022-07-29T21:49:00.959Z,8.70
2022-07-29T21:51:29.326Z,9.60
2022-07-29T21:53:57.942Z,7.50
2022-07-29T21:56:27.845Z,9.60
2022-07-29T21:58:56.415Z,8.90
2022-07-29T22:01:24.922Z,9.70
2022-07-29T22:03:53.308Z,10.20
2022-07-29T22:06:21.886Z,11.40
2022-07-29T22:08:50.145Z,10.90
2022-07-29T22:11:18.829Z,10.50
2022-07-29T22:13:48.862Z,9.00
2022-07-29T22:16:17.842Z,8.70
2022-07-29T22:18:47.490Z,9.70
2022-07-29T22:21:15.966Z,9.00
2022-07-29T22:23:44.207Z,9.10
2022-07-29T22:26:12.728Z,8.80
2022-07-29T22:28:40.974Z,7.90
2022-07-29T22:31:09.391Z,7.70
2022-07-29T22:33:37.949Z,7.30
2022-07-29T22:36:06.834Z,7.60
2022-07-29T22:38:35.208Z,6.40
2022-07-29T22:41:03.505Z,6.90
2022-07-29T22:43:31.682Z,6.60
2022-07-29T22:45:59.987Z,7.00
2022-07-29T22:48:28.085Z,6.50
2022-07-29T22:50:56.402Z,6.10
2022-07-29T22:53:24.786Z,6.30
2022-07-29T22:55:54.903Z,5.70
2022-07-29T22:58:23.111Z,7.40
2022-07-29T23:00:51.389Z,7.20
2022-07-29T23:03:22.048Z,7.80
2022-07-29T23:05:51.943Z,7.30
2022-07-29T23:08:20.833Z,6.80
2022-07-29T23:10:49.283Z,6.90
2022-07-29T23:13:17.662Z,6.30
2022-07-29T23:15:46.043Z,6.40
2022-07-29T23:18:14.544Z,7.00
2022-07-29T23:20:43.985Z,6.70
2022-07-29T23:23:12.313Z,7.20
2022-07-29T23:25:40.705Z,6.60
2022-07-29T23:28:11.664Z,6.20
2022-07-29T23:30:42.833Z,6.30
2022-07-29T23:33:11.161Z,6.70
2022-07-29T23:35:39.554Z,6.80
2022-07-29T23:38:08.017Z,7.30
2022-07-29T23:40:36.350Z,7.00
2022-07-29T23:43:08.751Z,6.80
2022-07-29T23:45:44.650Z,6.80
2022-07-29T23:48:16.908Z,6.90
2022-07-29T23:50:45.214Z,7.20
2022-07-29T23:53:13.462Z,7.20
2022-07-29T23:55:41.738Z,7.00
2022-07-29T23:58:10.347Z,6.20
